createdAt,value
2023-04-23T00:00:14.412Z,70.30
2023-04-23T00:02:44.956Z,70.50
2023-04-23T00:05:13.129Z,70.60
2023-04-23T00:07:40.787Z,70.80
2023-04-23T00:10:09.099Z,70.80
2023-04-23T00:12:36.436Z,70.80
2023-04-23T00:15:04.698Z,70.90
2023-04-23T00:17:31.840Z,70.90
2023-04-23T00:19:58.799Z,71.10
2023-04-23T00:22:25.735Z,71.20
2023-04-23T00:24:52.637Z,71.20
2023-04-23T00:27:21.129Z,71.20
2023-04-23T00:29:51.372Z,71.30
2023-04-23T00:32:18.399Z,71.30
2023-04-23T00:34:48.734Z,71.30
2023-04-23T00:37:16.534Z,71.30
2023-04-23T00:39:43.967Z,71.40
2023-04-23T00:42:12.586Z,71.30
2023-04-23T00:44:42.097Z,71.50
2023-04-23T00:47:10.441Z,72.50
2023-04-23T00:49:39.328Z,71.80
2023-04-23T00:52:06.798Z,71.90
2023-04-23T00:54:34.214Z,71.90
2023-04-23T00:57:02.141Z,72.00
2023-04-23T00:59:30.699Z,72.10
2023-04-23T01:01:59.222Z,72.40
2023-04-23T01:04:30.782Z,72.60
2023-04-23T01:06:59.482Z,72.70
2023-04-23T01:09:32.480Z,72.90
2023-04-23T01:12:02.498Z,73.00
2023-04-23T01:14:29.413Z,73.00
2023-04-23T01:16:56.870Z,73.00
2023-04-23T01:19:23.819Z,73.00
2023-04-23T01:21:51.248Z,73.00
2023-04-23T01:24:18.164Z,72.80
2023-04-23T01:26:45.901Z,72.60
2023-04-23T01:29:14.052Z,72.70
2023-04-23T01:31:42.024Z,72.60
2023-04-23T01:34:11.027Z,72.90
2023-04-23T01:36:38.077Z,72.90
2023-04-23T01:39:05.721Z,73.00
2023-04-23T01:41:33.765Z,73.10
2023-04-23T01:44:01.332Z,73.20
2023-04-23T01:46:28.620Z,73.20
2023-04-23T01:48:56.335Z,73.10
2023-04-23T01:51:25.260Z,73.20
2023-04-23T01:53:52.197Z,73.30
2023-04-23T01:56:21.780Z,73.30
2023-04-23T01:58:48.653Z,73.30
2023-04-23T02:01:15.537Z,73.30
2023-04-23T02:03:42.672Z,73.40
2023-04-23T02:06:10.137Z,73.30
2023-04-23T02:08:37.517Z,73.30
2023-04-23T02:11:06.679Z,73.20
2023-04-23T02:13:33.532Z,73.10
2023-04-23T02:16:00.576Z,73.10
2023-04-23T02:18:27.666Z,73.10
2023-04-23T02:20:54.462Z,72.90
2023-04-23T02:23:21.299Z,72.80
2023-04-23T02:25:48.411Z,72.80
2023-04-23T02:28:15.218Z,73.00
2023-04-23T02:30:45.982Z,73.00
2023-04-23T02:33:13.028Z,73.30
2023-04-23T02:35:39.932Z,73.30
2023-04-23T02:38:06.760Z,73.40
2023-04-23T02:40:34.701Z,73.50
2023-04-23T02:43:01.538Z,73.60
2023-04-23T02:45:28.360Z,73.60
2023-04-23T02:47:55.505Z,73.80
2023-04-23T02:50:22.708Z,73.80
2023-04-23T02:52:49.898Z,73.90
2023-04-23T02:55:16.963Z,73.90
2023-04-23T02:57:45.430Z,73.90
2023-04-23T03:00:13.467Z,74.10
2023-04-23T03:02:42.608Z,75.10
2023-04-23T03:05:10.202Z,74.40
2023-04-23T03:07:37.006Z,74.50
2023-04-23T03:10:04.180Z,74.40
2023-04-23T03:12:31.182Z,74.20
2023-04-23T03:14:58.061Z,74.30
2023-04-23T03:17:26.795Z,74.30
2023-04-23T03:19:53.762Z,74.10
2023-04-23T03:22:21.403Z,74.10
2023-04-23T03:24:48.331Z,73.90
2023-04-23T03:27:15.351Z,73.90
2023-04-23T03:29:42.224Z,73.40
2023-04-23T03:32:09.205Z,73.20
2023-04-23T03:34:36.156Z,72.50
2023-04-23T03:37:02.971Z,72.20
2023-04-23T03:39:32.581Z,72.20
2023-04-23T03:41:59.392Z,72.00
2023-04-23T03:44:29.746Z,71.70
2023-04-23T03:46:56.656Z,71.90
2023-04-23T03:49:23.540Z,72.40
2023-04-23T03:51:50.550Z,72.20
2023-04-23T03:54:19.768Z,72.20
2023-04-23T03:57:03.631Z,72.20
2023-04-23T03:59:35.892Z,72.10
2023-04-23T04:02:04.432Z,72.20
2023-04-23T04:04:32.283Z,72.00
2023-04-23T04:07:02.604Z,71.90
2023-04-23T04:09:30.185Z,71.80
2023-04-23T04:12:01.683Z,71.90
2023-04-23T04:14:28.595Z,72.10
2023-04-23T04:16:55.616Z,72.10
2023-04-23T04:19:22.560Z,72.10
2023-04-23T04:21:49.588Z,72.20
2023-04-23T04:24:16.529Z,72.20
2023-04-23T04:26:44.281Z,72.20
2023-04-23T04:29:11.603Z,72.10
2023-04-23T04:31:38.669Z,72.00
2023-04-23T04:34:07.263Z,72.10
2023-04-23T04:36:35.633Z,72.00
2023-04-23T04:39:03.564Z,71.90
2023-04-23T04:41:30.408Z,71.80
2023-04-23T04:43:58.749Z,71.60
2023-04-23T04:46:29.409Z,71.60
2023-04-23T04:48:56.284Z,71.30
2023-04-23T04:51:23.273Z,71.30
2023-04-23T04:53:50.111Z,71.20
2023-04-23T04:56:16.948Z,71.10
2023-04-23T04:58:43.787Z,70.90
2023-04-23T05:01:10.933Z,70.80
2023-04-23T05:03:39.118Z,71.00
2023-04-23T05:06:06.384Z,71.20
2023-04-23T05:08:33.302Z,71.30
2023-04-23T05:11:01.766Z,71.60
2023-04-23T05:13:28.633Z,71.70
2023-04-23T05:15:55.544Z,72.00
2023-04-23T05:18:22.430Z,72.20
2023-04-23T05:20:49.356Z,72.40
2023-04-23T05:23:16.270Z,72.50
2023-04-23T05:25:43.082Z,72.60
2023-04-23T05:28:10.006Z,73.00
2023-04-23T05:30:36.901Z,73.00
2023-04-23T05:33:04.039Z,73.00
2023-04-23T05:35:32.020Z,72.80
2023-04-23T05:37:58.962Z,72.70
2023-04-23T05:40:26.187Z,72.60
2023-04-23T05:42:52.939Z,72.30
2023-04-23T05:45:19.900Z,71.90
2023-04-23T05:47:46.827Z,71.20
2023-04-23T05:50:13.786Z,70.90
2023-04-23T05:52:40.704Z,71.20
2023-04-23T05:55:09.742Z,71.60
2023-04-23T05:57:37.868Z,71.00
2023-04-23T06:00:11.854Z,71.30
2023-04-23T06:02:42.332Z,71.00
2023-04-23T06:05:09.990Z,70.80
2023-04-23T06:07:37.231Z,70.80
2023-04-23T06:10:05.614Z,70.30
2023-04-23T06:12:32.658Z,70.00
2023-04-23T06:14:59.501Z,69.40
2023-04-23T06:17:26.488Z,67.20
2023-04-23T06:19:53.390Z,65.10
2023-04-23T06:22:20.287Z,62.30
2023-04-23T06:24:47.085Z,61.20
2023-04-23T06:27:13.898Z,60.10
2023-04-23T06:29:45.244Z,59.20
2023-04-23T06:32:12.509Z,58.00
2023-04-23T06:34:46.744Z,56.30
2023-04-23T06:37:20.722Z,55.40
2023-04-23T06:39:47.638Z,53.70
2023-04-23T06:42:14.499Z,53.10
2023-04-23T06:45:06.415Z,52.00
2023-04-23T06:47:33.641Z,50.80
2023-04-23T06:50:00.576Z,50.40
2023-04-23T06:52:27.808Z,49.00
2023-04-23T06:54:54.580Z,48.60
2023-04-23T06:57:21.915Z,47.90
2023-04-23T06:59:48.928Z,47.90
2023-04-23T07:02:17.535Z,47.00
2023-04-23T07:04:44.662Z,47.20
2023-04-23T07:07:12.065Z,46.90
2023-04-23T07:09:39.355Z,46.90
2023-04-23T07:12:06.465Z,46.60
2023-04-23T07:14:33.560Z,46.60
2023-04-23T07:17:00.610Z,46.10
2023-04-23T07:19:27.598Z,45.90
2023-04-23T07:21:54.616Z,45.40
2023-04-23T07:24:21.438Z,45.20
2023-04-23T07:26:48.303Z,44.80
2023-04-23T07:29:15.509Z,44.40
2023-04-23T07:31:42.550Z,43.70
2023-04-23T07:34:09.962Z,44.70
2023-04-23T07:36:36.931Z,44.30
2023-04-23T07:39:05.298Z,44.10
2023-04-23T07:41:33.076Z,44.40
2023-04-23T07:44:00.326Z,43.80
2023-04-23T07:46:27.368Z,43.20
2023-04-23T07:48:54.320Z,43.10
2023-04-23T07:51:22.563Z,42.90
2023-04-23T07:53:51.276Z,42.70
2023-04-23T07:56:18.240Z,42.70
2023-04-23T07:58:45.017Z,42.60
2023-04-23T08:01:11.894Z,41.80
2023-04-23T08:03:39.033Z,42.30
2023-04-23T08:06:06.422Z,42.60
2023-04-23T08:08:33.396Z,42.00
2023-04-23T08:11:00.329Z,41.50
2023-04-23T08:13:27.359Z,41.30
2023-04-23T08:15:54.261Z,41.10
2023-04-23T08:18:21.164Z,40.70
2023-04-23T08:20:48.951Z,40.80
2023-04-23T08:23:15.780Z,40.10
2023-04-23T08:25:42.594Z,40.50
2023-04-23T08:28:09.387Z,40.90
2023-04-23T08:30:36.309Z,40.30
2023-04-23T08:33:03.525Z,40.90
2023-04-23T08:35:30.566Z,40.40
2023-04-23T08:37:57.991Z,39.90
2023-04-23T08:40:26.650Z,39.10
2023-04-23T08:43:06.672Z,40.30
2023-04-23T08:45:41.510Z,39.20
2023-04-23T08:48:10.430Z,38.60
2023-04-23T08:50:38.591Z,39.10
2023-04-23T08:53:07.044Z,38.80
2023-04-23T08:55:35.768Z,38.50
2023-04-23T08:58:06.294Z,39.00
2023-04-23T09:00:34.683Z,38.70
2023-04-23T09:03:02.298Z,38.30
2023-04-23T09:05:30.515Z,38.70
2023-04-23T09:07:59.925Z,38.30
2023-04-23T09:10:27.053Z,37.70
2023-04-23T09:12:54.012Z,37.50
2023-04-23T09:15:20.945Z,37.30
2023-04-23T09:17:49.992Z,37.60
2023-04-23T09:20:17.666Z,37.40
2023-04-23T09:22:55.324Z,37.30
2023-04-23T09:25:24.544Z,37.80
2023-04-23T09:27:52.772Z,38.30
2023-04-23T09:30:20.288Z,37.70
2023-04-23T09:32:47.896Z,36.60
2023-04-23T09:35:21.586Z,36.90
2023-04-23T09:37:50.477Z,38.30
2023-04-23T09:40:20.115Z,38.40
2023-04-23T09:42:54.266Z,39.30
2023-04-23T09:45:21.634Z,39.00
2023-04-23T09:47:56.769Z,38.60
2023-04-23T09:50:35.040Z,37.30
2023-04-23T09:53:01.966Z,36.40
2023-04-23T09:55:39.835Z,36.60
2023-04-23T09:58:11.646Z,37.50
2023-04-23T10:00:40.408Z,37.00
2023-04-23T10:03:08.883Z,36.10
2023-04-23T10:08:13.958Z,36.80
2023-04-23T10:10:55.110Z,37.00
2023-04-23T10:13:28.072Z,36.50
2023-04-23T10:15:59.037Z,37.20
2023-04-23T10:18:33.475Z,36.60
2023-04-23T10:21:02.613Z,36.30
2023-04-23T10:23:30.948Z,36.80
2023-04-23T10:25:59.492Z,38.10
2023-04-23T10:28:31.995Z,37.40
2023-04-23T10:31:00.038Z,36.70
2023-04-23T10:33:30.854Z,38.30
2023-04-23T10:36:00.805Z,36.70
2023-04-23T10:38:28.453Z,35.80
2023-04-23T10:40:58.877Z,36.90
2023-04-23T10:43:25.881Z,36.30
2023-04-23T10:45:53.854Z,37.80
2023-04-23T10:48:21.511Z,38.30
2023-04-23T10:51:09.689Z,36.50
2023-04-23T10:53:45.878Z,36.30
2023-04-23T10:56:12.794Z,37.10
2023-04-23T10:58:50.579Z,36.90
2023-04-23T11:01:18.804Z,37.90
2023-04-23T11:03:45.948Z,37.80
2023-04-23T11:06:19.293Z,38.10
2023-04-23T11:08:54.185Z,36.70
2023-04-23T11:11:39.970Z,36.80
2023-04-23T11:14:16.441Z,37.20
2023-04-23T11:16:43.766Z,36.70
2023-04-23T11:19:17.299Z,37.20
2023-04-23T11:22:01.783Z,38.00
2023-04-23T11:24:42.951Z,37.90
2023-04-23T11:27:14.316Z,37.60
2023-04-23T11:29:43.466Z,38.10
2023-04-23T11:32:13.429Z,38.90
2023-04-23T11:34:43.347Z,39.50
2023-04-23T11:37:12.462Z,39.60
2023-04-23T11:39:44.118Z,38.80
2023-04-23T11:42:11.906Z,38.50
2023-04-23T11:44:41.130Z,39.50
2023-04-23T11:47:13.478Z,38.80
2023-04-23T11:49:42.805Z,39.90
2023-04-23T11:52:11.169Z,39.80
2023-04-23T11:54:41.285Z,40.40
2023-04-23T11:57:08.549Z,40.90
2023-04-23T11:59:35.751Z,40.30
2023-04-23T12:02:02.794Z,40.00
2023-04-23T12:04:31.629Z,41.30
2023-04-23T12:06:59.299Z,42.70
2023-04-23T12:09:27.990Z,42.50
2023-04-23T12:11:56.847Z,43.90
2023-04-23T12:14:30.947Z,44.10
2023-04-23T12:16:59.059Z,42.80
2023-04-23T12:19:28.415Z,42.20
2023-04-23T12:21:57.203Z,42.50
2023-04-23T12:24:48.503Z,42.80
2023-04-23T12:27:16.835Z,41.80
2023-04-23T12:29:43.958Z,42.20
2023-04-23T12:32:11.828Z,42.80
2023-04-23T12:34:54.851Z,41.60
2023-04-23T12:37:26.900Z,41.60
2023-04-23T12:39:56.693Z,42.60
2023-04-23T12:42:24.228Z,42.90
2023-04-23T12:44:51.711Z,42.70
2023-04-23T12:47:19.763Z,41.50
2023-04-23T12:49:49.791Z,42.00
2023-04-23T12:52:16.654Z,41.20
2023-04-23T12:54:44.923Z,41.80
2023-04-23T12:57:14.479Z,41.60
2023-04-23T12:59:41.883Z,42.90
2023-04-23T13:02:09.745Z,43.60
2023-04-23T13:04:37.194Z,43.50
2023-04-23T13:07:04.947Z,44.10
2023-04-23T13:09:32.074Z,43.80
2023-04-23T13:12:00.194Z,44.80
2023-04-23T13:14:28.024Z,45.20
2023-04-23T13:16:55.286Z,45.00
2023-04-23T13:19:22.164Z,45.20
2023-04-23T13:21:48.979Z,46.50
2023-04-23T13:24:16.194Z,46.50
2023-04-23T13:26:42.993Z,47.00
2023-04-23T13:29:09.759Z,47.00
2023-04-23T13:31:36.675Z,48.60
2023-04-23T13:34:03.555Z,48.60
2023-04-23T13:36:30.653Z,48.60
2023-04-23T13:38:57.632Z,49.10
2023-04-23T13:41:24.419Z,49.20
2023-04-23T13:43:51.285Z,49.30
2023-04-23T13:46:19.783Z,47.50
2023-04-23T13:48:46.984Z,46.60
2023-04-23T13:51:32.594Z,45.90
2023-04-23T13:54:01.231Z,45.30
2023-04-23T13:56:30.037Z,46.60
2023-04-23T13:59:08.407Z,46.50
2023-04-23T14:01:47.218Z,45.50
2023-04-23T14:04:14.291Z,44.60
2023-04-23T14:06:41.156Z,44.60
2023-04-23T14:09:08.072Z,44.20
2023-04-23T14:11:35.047Z,44.20
2023-04-23T14:14:01.909Z,44.10
2023-04-23T14:16:28.783Z,45.20
2023-04-23T14:18:55.703Z,46.10
2023-04-23T14:21:22.840Z,46.60
2023-04-23T14:23:55.663Z,45.60
2023-04-23T14:26:47.342Z,45.70
2023-04-23T14:29:40.788Z,45.40
2023-04-23T14:32:08.168Z,45.70
2023-04-23T14:34:35.958Z,45.80
2023-04-23T14:37:03.791Z,45.90
2023-04-23T14:39:30.880Z,46.80
2023-04-23T14:41:57.828Z,47.80
2023-04-23T14:44:26.693Z,48.70
2023-04-23T14:46:53.587Z,49.60
2023-04-23T14:49:23.262Z,50.80
2023-04-23T14:51:54.180Z,53.80
2023-04-23T14:54:22.132Z,55.90
2023-04-23T14:56:49.155Z,57.70
2023-04-23T14:59:16.234Z,59.30
2023-04-23T15:01:43.612Z,60.00
2023-04-23T15:04:11.517Z,60.30
2023-04-23T15:06:40.484Z,60.80
2023-04-23T15:09:07.547Z,60.70
2023-04-23T15:11:34.760Z,61.00
2023-04-23T15:14:08.903Z,61.00
2023-04-23T15:19:07.101Z,61.90
2023-04-23T15:21:34.238Z,62.30
2023-04-23T15:24:01.021Z,62.70
2023-04-23T15:26:28.100Z,63.00
2023-04-23T15:28:55.401Z,63.10
2023-04-23T15:31:22.366Z,63.50
2023-04-23T15:33:49.392Z,63.20
2023-04-23T15:36:16.268Z,63.50
2023-04-23T15:38:43.136Z,63.70
2023-04-23T15:41:11.555Z,63.70
2023-04-23T15:43:38.547Z,63.60
2023-04-23T15:46:05.690Z,63.90
2023-04-23T15:48:32.801Z,63.90
2023-04-23T15:50:59.755Z,64.10
2023-04-23T15:53:28.330Z,64.60
2023-04-23T15:55:55.204Z,64.70
2023-04-23T15:58:22.152Z,64.60
2023-04-23T16:00:49.094Z,65.10
2023-04-23T16:03:16.199Z,65.20
2023-04-23T16:05:43.396Z,65.30
2023-04-23T16:08:10.628Z,65.70
2023-04-23T16:10:40.534Z,66.20
2023-04-23T16:13:07.463Z,65.80
2023-04-23T16:15:34.866Z,65.90
2023-04-23T16:18:01.723Z,66.40
2023-04-23T16:20:28.786Z,66.70
2023-04-23T16:22:55.782Z,67.10
2023-04-23T16:25:22.820Z,66.90
2023-04-23T16:27:49.871Z,67.20
2023-04-23T16:30:16.935Z,67.50
2023-04-23T16:32:44.003Z,67.20
2023-04-23T16:35:11.177Z,67.70
2023-04-23T16:37:38.260Z,67.90
2023-04-23T16:40:06.063Z,67.70
2023-04-23T16:42:33.233Z,67.50
2023-04-23T16:45:00.059Z,67.70
2023-04-23T16:47:26.986Z,68.70
2023-04-23T16:49:53.905Z,67.60
2023-04-23T16:52:20.784Z,68.10
2023-04-23T16:54:49.525Z,67.90
2023-04-23T16:57:17.796Z,67.10
2023-04-23T16:59:44.690Z,67.20
2023-04-23T17:02:11.918Z,67.40
2023-04-23T17:04:39.323Z,67.70
2023-04-23T17:07:06.635Z,68.70
2023-04-23T17:09:33.372Z,68.80
2023-04-23T17:12:00.200Z,68.50
2023-04-23T17:14:27.145Z,68.90
2023-04-23T17:16:54.001Z,69.20
2023-04-23T17:19:20.935Z,69.80
2023-04-23T17:21:47.827Z,70.20
2023-04-23T17:24:15.010Z,70.50
2023-04-23T17:26:41.832Z,70.60
2023-04-23T17:29:08.924Z,71.10
2023-04-23T17:31:37.706Z,70.80
2023-04-23T17:34:05.532Z,71.40
2023-04-23T17:36:32.950Z,71.20
2023-04-23T17:38:59.887Z,71.40
2023-04-23T17:41:26.819Z,70.70
2023-04-23T17:43:53.750Z,70.40
2023-04-23T17:46:21.510Z,70.50
2023-04-23T17:48:48.542Z,70.20
2023-04-23T17:51:15.710Z,70.30
2023-04-23T17:53:42.684Z,70.70
2023-04-23T17:56:10.336Z,70.60
2023-04-23T17:58:38.313Z,71.30
2023-04-23T18:01:07.283Z,71.20
2023-04-23T18:03:34.190Z,71.10
2023-04-23T18:06:01.413Z,71.30
2023-04-23T18:08:28.394Z,71.40
2023-04-23T18:10:55.469Z,71.70
2023-04-23T18:13:22.268Z,72.10
2023-04-23T18:15:50.047Z,72.60
2023-04-23T18:18:18.240Z,72.60
2023-04-23T18:20:46.296Z,72.70
2023-04-23T18:23:14.320Z,72.70
2023-04-23T18:25:42.031Z,72.90
2023-04-23T18:28:09.339Z,72.90
2023-04-23T18:30:38.120Z,72.90
2023-04-23T18:33:11.257Z,72.90
2023-04-23T18:35:42.924Z,73.10
2023-04-23T18:38:44.957Z,73.20
2023-04-23T18:41:11.792Z,73.30
2023-04-23T18:43:38.846Z,74.30
2023-04-23T18:46:06.133Z,73.60
2023-04-23T18:48:33.106Z,73.60
2023-04-23T18:51:30.058Z,73.60
2023-04-23T18:53:59.331Z,73.60
2023-04-23T18:56:26.310Z,73.40
2023-04-23T18:58:53.155Z,73.50
2023-04-23T19:01:20.931Z,73.20
2023-04-23T19:03:48.151Z,73.30
2023-04-23T19:06:15.904Z,73.30
2023-04-23T19:08:42.791Z,73.30
2023-04-23T19:11:09.687Z,73.10
2023-04-23T19:13:36.631Z,73.30
2023-04-23T19:16:03.658Z,73.40
2023-04-23T19:18:30.732Z,73.40
2023-04-23T19:20:58.333Z,73.70
2023-04-23T19:23:25.082Z,73.60
2023-04-23T19:25:51.879Z,73.70
2023-04-23T19:28:18.938Z,73.60
2023-04-23T19:30:46.132Z,73.80
2023-04-23T19:33:12.993Z,73.90
2023-04-23T19:35:40.497Z,74.10
2023-04-23T19:38:07.719Z,73.90
2023-04-23T19:40:34.757Z,74.00
2023-04-23T19:43:01.873Z,74.10
2023-04-23T19:45:30.075Z,74.10
2023-04-23T19:47:57.501Z,74.20
2023-04-23T19:50:25.583Z,74.30
2023-04-23T19:52:53.337Z,74.10
2023-04-23T19:55:22.415Z,74.10
2023-04-23T19:57:49.321Z,74.10
2023-04-23T20:00:16.640Z,73.80
2023-04-23T20:02:43.648Z,73.40
2023-04-23T20:05:11.207Z,73.10
2023-04-23T20:07:39.150Z,72.80
2023-04-23T20:10:07.022Z,72.40
2023-04-23T20:12:34.878Z,71.90
2023-04-23T20:15:02.218Z,71.90
2023-04-23T20:17:30.058Z,71.80
2023-04-23T20:20:01.859Z,71.10
2023-04-23T20:22:30.056Z,70.70
2023-04-23T20:24:57.943Z,70.40
2023-04-23T20:27:26.381Z,70.00
2023-04-23T20:29:53.388Z,69.70
2023-04-23T20:32:20.434Z,69.60
2023-04-23T20:34:47.371Z,69.30
2023-04-23T20:37:14.219Z,69.00
2023-04-23T20:39:41.931Z,68.60
2023-04-23T20:42:09.128Z,68.50
2023-04-23T20:44:36.421Z,68.20
2023-04-23T20:47:04.731Z,67.40
2023-04-23T20:49:32.591Z,67.40
2023-04-23T20:51:59.916Z,68.50
2023-04-23T20:54:26.900Z,67.80
2023-04-23T20:56:54.381Z,68.00
2023-04-23T20:59:21.864Z,68.20
2023-04-23T21:01:49.944Z,68.00
2023-04-23T21:04:17.219Z,68.00
2023-04-23T21:06:44.252Z,67.80
2023-04-23T21:09:11.286Z,67.70
2023-04-23T21:11:38.309Z,67.80
2023-04-23T21:14:08.858Z,67.90
2023-04-23T21:16:36.905Z,68.20
2023-04-23T21:19:05.016Z,68.10
2023-04-23T21:21:32.557Z,68.20
2023-04-23T21:24:00.695Z,68.40
2023-04-23T21:26:30.001Z,68.40
2023-04-23T21:28:57.079Z,68.30
2023-04-23T21:31:46.270Z,68.30
2023-04-23T21:34:14.716Z,68.60
2023-04-23T21:36:41.716Z,68.90
2023-04-23T21:39:09.541Z,69.00
2023-04-23T21:41:38.565Z,69.30
2023-04-23T21:44:05.622Z,69.60
2023-04-23T21:46:32.669Z,69.90
2023-04-23T21:48:59.606Z,70.20
2023-04-23T21:51:26.423Z,70.60
2023-04-23T21:53:53.317Z,70.80
2023-04-23T21:56:21.302Z,70.90
2023-04-23T21:58:48.166Z,71.00
2023-04-23T22:01:14.997Z,71.00
2023-04-23T22:03:47.133Z,71.00
2023-04-23T22:06:18.776Z,70.90
2023-04-23T22:08:47.160Z,70.90
2023-04-23T22:11:14.825Z,70.60
2023-04-23T22:13:41.733Z,70.40
2023-04-23T22:16:24.488Z,70.30
2023-04-23T22:18:55.651Z,70.70
2023-04-23T22:21:22.688Z,70.50
2023-04-23T22:23:49.560Z,70.80
2023-04-23T22:26:16.618Z,70.90
2023-04-23T22:28:44.111Z,70.40
2023-04-23T22:31:11.139Z,69.60
2023-04-23T22:33:38.020Z,69.30
2023-04-23T22:36:05.419Z,69.40
2023-04-23T22:38:32.523Z,69.50
2023-04-23T22:40:59.837Z,69.60
2023-04-23T22:43:26.607Z,69.80
2023-04-23T22:45:53.535Z,69.90
2023-04-23T22:48:21.220Z,70.00
2023-04-23T22:50:50.923Z,70.20
2023-04-23T22:53:19.587Z,70.20
2023-04-23T22:55:47.277Z,70.40
2023-04-23T22:58:14.515Z,70.50
2023-04-23T23:00:41.582Z,70.50
2023-04-23T23:03:08.758Z,70.70
2023-04-23T23:05:35.767Z,70.90
2023-04-23T23:08:02.881Z,71.00
2023-04-23T23:10:30.056Z,71.10
2023-04-23T23:12:56.971Z,71.30
2023-04-23T23:15:23.732Z,71.30
2023-04-23T23:17:51.111Z,71.10
2023-04-23T23:20:18.287Z,71.10
2023-04-23T23:22:45.249Z,70.90
2023-04-23T23:25:12.347Z,70.50
2023-04-23T23:27:39.163Z,70.40
2023-04-23T23:30:07.928Z,70.40
2023-04-23T23:32:35.325Z,70.50
2023-04-23T23:35:03.018Z,70.60
2023-04-23T23:37:29.788Z,70.80
2023-04-23T23:39:56.566Z,71.00
2023-04-23T23:42:23.475Z,71.10
2023-04-23T23:44:50.470Z,71.30
2023-04-23T23:47:17.342Z,71.50
2023-04-23T23:49:44.305Z,71.70
2023-04-23T23:52:11.322Z,71.70
2023-04-23T23:54:38.164Z,71.90
2023-04-23T23:57:05.270Z,72.00
2023-04-23T23:59:32.125Z,71.80
